Pagina principale
METAR-TAF:

METAR-TAF

Aeroporti :

Athens, Tennessee, Stati Uniti

latitudine: 35-23-50N, longitudine: 084-33-45W, altezza: 262 m

Osservazione

Il bollettino è stato emesso 10 minuti fa, alle 09:35 UTC
Vento calmo
Temperature -3°C
Umidità 93%
Pressione 1025 hPa
Visibilità: 14.5 km
Cielo sereno

METAR: KMMI 120935Z AUTO 00000KT 9SM CLR M03/M04 A3026 RMK A01

Ora: 03:45 (09:45 UTC)


TAF: mancante

Osservazioni e previsioni meteorologiche di più di 4000 aeroporti (messaggi METAR e TAF).

Le stazioni disponibili sono rappresentate dai dischi gialli e rossi sulla carta.

Puntare il mouse per vedere il nome della stazione.

Clicca sopra per visualizzare le osservazioni e previsioni meteorologiche.

Per cambiare la mappa : fare clic sui pulsanti verdi con una croce nera per ingrandire, il pulsante verde con un trattino per diminuire, o sulla freccia verde per le mappe adiacenti.


METAR-TAF: